Time;durP1;ratioP1;P1;durP2;ratioP2;P2;SDS_P1;SDS_P2;PMS_P1;PMS_P2;Temp;Humidity;BMP_temperature;BMP_pressure;BME280_temperature;BME280_humidity;BME280_pressure;Samples;Min_cycle;Max_cycle;Signal;HPM_P1;HPM_P2
2022/03/07 00:01:44;;;;;;;36.67;23.90;;;;;;;-0.71;54.43;99391.63;2285463;78;21342;-82
2022/03/07 00:04:45;;;;;;;43.37;28.97;;;;;;;-0.73;54.38;99390.64;2285453;78;21335;-81
2022/03/07 00:07:45;;;;;;;51.57;30.07;;;;;;;-0.74;54.40;99386.30;2285087;78;20915;-82
2022/03/07 00:10:46;;;;;;;43.47;29.93;;;;;;;-0.72;54.30;99383.44;2285078;78;20987;-81
2022/03/07 00:13:46;;;;;;;45.43;28.97;;;;;;;-0.68;54.37;99392.21;2284894;78;20939;-81
2022/03/07 00:16:47;;;;;;;40.30;27.57;;;;;;;-0.68;54.58;99385.41;2285027;78;20954;-82
2022/03/07 00:19:47;;;;;;;40.70;27.87;;;;;;;-0.69;54.41;99386.20;2285250;78;21737;-81
2022/03/07 00:22:48;;;;;;;46.13;28.23;;;;;;;-0.71;54.43;99388.17;2285111;78;21330;-81
2022/03/07 00:25:48;;;;;;;44.97;29.03;;;;;;;-0.73;54.31;99392.31;2285158;78;21322;-81
2022/03/07 00:28:49;;;;;;;40.53;27.63;;;;;;;-0.77;54.63;99390.34;2285168;78;21380;-82
2022/03/07 00:31:49;;;;;;;44.50;27.83;;;;;;;-0.79;54.69;99379.09;2285239;78;20982;-82
2022/03/07 00:34:50;;;;;;;40.30;28.00;;;;;;;-0.82;54.60;99389.16;2284987;78;20943;-82
2022/03/07 00:37:51;;;;;;;42.67;27.73;;;;;;;-0.90;54.61;99392.47;2256900;78;22297;-84
2022/03/07 00:40:52;;;;;;;34.30;24.90;;;;;;;-0.92;54.78;99393.16;2288458;77;21031;-82
2022/03/07 00:43:52;;;;;;;40.70;25.97;;;;;;;-0.92;55.23;99392.77;2302961;77;21037;-82
2022/03/07 00:46:53;;;;;;;40.27;27.27;;;;;;;-0.95;55.54;99391.28;2303006;77;20930;-81
2022/03/07 00:49:54;;;;;;;35.57;25.83;;;;;;;-0.94;55.48;99387.93;2303187;77;20905;-81
2022/03/07 00:52:54;;;;;;;42.60;28.07;;;;;;;-0.94;55.60;99391.77;2302881;77;21399;-82
2022/03/07 00:55:55;;;;;;;43.13;27.40;;;;;;;-0.96;55.43;99386.55;2303317;77;21313;-81
2022/03/07 00:58:56;;;;;;;42.27;26.83;;;;;;;-0.98;55.69;99388.52;2303398;77;21322;-82
2022/03/07 01:01:56;;;;;;;42.37;26.67;;;;;;;-0.97;55.41;99383.49;2303309;77;20921;-81
2022/03/07 01:04:57;;;;;;;39.83;26.90;;;;;;;-0.96;55.44;99386.55;2303804;77;20937;-83
2022/03/07 01:07:57;;;;;;;42.50;26.17;;;;;;;-0.99;55.21;99380.34;2303211;77;20956;-83
2022/03/07 01:10:58;;;;;;;43.57;26.10;;;;;;;-1.00;55.44;99382.41;2303581;77;20957;-81
2022/03/07 01:13:58;;;;;;;38.00;24.80;;;;;;;-1.00;55.59;99374.72;2303494;77;20953;-81
2022/03/07 01:16:59;;;;;;;38.77;24.80;;;;;;;-1.01;55.71;99370.38;2303956;77;20921;-81
2022/03/07 01:19:59;;;;;;;40.10;24.87;;;;;;;-0.98;55.83;99373.14;2303100;77;20972;-81
2022/03/07 01:22:59;;;;;;;39.57;25.13;;;;;;;-0.94;55.67;99362.30;2303676;77;20882;-81
2022/03/07 01:26:00;;;;;;;35.77;24.80;;;;;;;-0.90;55.78;99360.44;2303950;77;21563;-81
2022/03/07 01:29:00;;;;;;;38.30;25.60;;;;;;;-0.87;55.77;99351.66;2303822;77;20937;-81
2022/03/07 01:32:01;;;;;;;39.60;25.90;;;;;;;-0.82;55.70;99347.75;2303464;77;20957;-81
2022/03/07 01:35:02;;;;;;;38.07;24.87;;;;;;;-0.79;55.47;99342.81;2303432;77;20976;-81
2022/03/07 01:38:03;;;;;;;38.00;25.07;;;;;;;-0.76;55.68;99344.30;2303433;77;20993;-81
2022/03/07 01:41:04;;;;;;;37.07;23.93;;;;;;;-0.73;55.38;99340.64;2305638;76;20982;-82
2022/03/07 01:44:04;;;;;;;38.37;23.13;;;;;;;-0.71;54.98;99340.74;2316552;77;21025;-82
2022/03/07 01:47:05;;;;;;;33.97;23.77;;;;;;;-0.68;55.53;99334.13;2316868;77;20919;-82
2022/03/07 01:50:06;;;;;;;31.87;22.30;;;;;;;-0.66;55.25;99335.52;2316633;77;21010;-81
2022/03/07 01:53:06;;;;;;;35.77;24.60;;;;;;;-0.66;55.44;99324.86;2316677;77;21002;-81
2022/03/07 01:56:07;;;;;;;34.30;22.97;;;;;;;-0.62;55.58;99322.09;2316862;77;21273;-81
2022/03/07 01:59:07;;;;;;;39.43;25.63;;;;;;;-0.62;55.63;99321.20;2316954;77;20959;-82
2022/03/07 02:02:08;;;;;;;33.03;23.00;;;;;;;-0.62;55.71;99323.77;2316999;77;20934;-82
2022/03/07 02:05:08;;;;;;;36.93;24.33;;;;;;;-0.60;55.94;99324.36;2316804;77;21366;-82
2022/03/07 02:08:09;;;;;;;41.37;26.40;;;;;;;-0.57;55.99;99321.99;2316933;77;21557;-82
2022/03/07 02:11:09;;;;;;;37.17;24.93;;;;;;;-0.62;56.03;99318.64;2316574;77;21315;-82
2022/03/07 02:14:10;;;;;;;38.40;25.53;;;;;;;-0.63;56.11;99324.56;2317035;77;20955;-83
2022/03/07 02:17:10;;;;;;;41.83;24.93;;;;;;;-0.68;56.31;99321.31;2317288;77;21270;-81
2022/03/07 02:20:11;;;;;;;46.13;26.63;;;;;;;-0.69;56.40;99322.11;2317148;77;20918;-82
2022/03/07 02:23:11;;;;;;;39.77;25.37;;;;;;;-0.70;56.51;99322.89;2317123;77;20912;-82
2022/03/07 02:26:12;;;;;;;31.87;23.60;;;;;;;-0.72;56.36;99321.02;2316622;77;20955;-81
2022/03/07 02:29:12;;;;;;;37.07;23.23;;;;;;;-0.81;56.34;99319.16;2317716;77;20979;-84
2022/03/07 02:32:13;;;;;;;36.30;22.03;;;;;;;-0.91;56.78;99315.09;2316990;77;20954;-82
2022/03/07 02:35:13;;;;;;;35.17;22.83;;;;;;;-0.95;57.04;99316.97;2317119;77;20959;-82
2022/03/07 02:38:17;;;;;;;39.07;25.30;;;;;;;-0.97;57.07;99312.14;2316819;77;20948;-82
2022/03/07 02:41:16;;;;;;;44.33;25.83;;;;;;;-1.02;57.25;99310.56;2316501;77;21398;-82
2022/03/07 02:44:17;;;;;;;42.00;25.53;;;;;;;-1.02;57.38;99304.55;2316727;77;20979;-82
2022/03/07 02:47:17;;;;;;;37.37;25.47;;;;;;;-1.03;57.36;99295.98;2316669;77;20939;-82
2022/03/07 02:50:18;;;;;;;39.13;26.07;;;;;;;-1.02;57.48;99300.31;2316797;77;21276;-82
2022/03/07 02:53:18;;;;;;;34.50;22.03;;;;;;;-1.02;57.21;99291.34;2316632;77;20974;-81
2022/03/07 02:56:19;;;;;;;31.67;21.80;;;;;;;-1.06;57.14;99291.94;2316800;77;20970;-81
2022/03/07 02:59:19;;;;;;;29.90;22.23;;;;;;;-1.07;57.57;99291.84;2316552;77;20975;-82
2022/03/07 03:02:21;;;;;;;29.17;20.10;;;;;;;-1.07;57.34;99286.72;2316943;77;20932;-82
2022/03/07 03:05:21;;;;;;;40.77;23.17;;;;;;;-1.05;57.48;99284.74;2317316;77;21311;-83
2022/03/07 03:08:22;;;;;;;31.77;20.87;;;;;;;-1.02;57.53;99285.33;2317124;77;20950;-82
2022/03/07 03:11:22;;;;;;;38.30;22.17;;;;;;;-1.00;57.35;99285.92;2316513;77;20919;-80
2022/03/07 03:14:23;;;;;;;34.73;22.13;;;;;;;-1.03;57.47;99280.60;2316930;77;20998;-81
2022/03/07 03:17:24;;;;;;;30.90;21.27;;;;;;;-1.02;57.18;99285.33;2317042;77;21299;-81
2022/03/07 03:20:25;;;;;;;28.37;19.67;;;;;;;-1.06;57.07;99292.33;2317150;77;21007;-84
2022/03/07 03:23:26;;;;;;;32.70;21.10;;;;;;;-1.09;57.19;99291.73;2316572;77;21621;-82
2022/03/07 03:26:26;;;;;;;35.37;21.93;;;;;;;-1.09;57.21;99293.41;2316588;77;20986;-81
2022/03/07 03:29:27;;;;;;;32.43;21.80;;;;;;;-1.07;57.40;99288.88;2316709;77;20970;-81
2022/03/07 03:32:27;;;;;;;36.60;21.63;;;;;;;-1.09;57.20;99285.34;2317123;77;20955;-86
2022/03/07 03:35:28;;;;;;;32.53;23.07;;;;;;;-1.10;57.40;99282.67;2317379;77;20888;-81
2022/03/07 03:38:28;;;;;;;34.73;21.07;;;;;;;-1.13;57.55;99282.48;2316879;77;20903;-81
2022/03/07 03:41:29;;;;;;;33.30;21.43;;;;;;;-1.14;57.36;99279.42;2316872;77;21303;-83
2022/03/07 03:44:29;;;;;;;38.27;24.07;;;;;;;-1.14;57.58;99275.19;2316854;77;21010;-83
2022/03/07 03:47:30;;;;;;;35.33;22.57;;;;;;;-1.05;57.80;99271.93;2316625;77;20932;-82
2022/03/07 03:50:30;;;;;;;35.13;22.27;;;;;;;-1.06;57.56;99273.11;2317128;77;20891;-81
2022/03/07 03:53:31;;;;;;;39.17;22.03;;;;;;;-1.10;57.72;99268.19;2316928;77;20979;-81
2022/03/07 03:56:31;;;;;;;36.50;22.17;;;;;;;-1.09;57.69;99273.80;2317082;77;20974;-81
2022/03/07 03:59:33;;;;;;;28.10;20.07;;;;;;;-1.07;57.51;99260.70;2316941;77;21334;-82
2022/03/07 04:02:33;;;;;;;33.60;21.93;;;;;;;-1.07;57.51;99260.70;2317057;77;20939;-82
2022/03/07 04:05:34;;;;;;;39.77;23.97;;;;;;;-1.07;57.72;99258.53;2317738;77;20978;-81
2022/03/07 04:08:34;;;;;;;34.27;23.63;;;;;;;-1.06;57.70;99269.27;2317210;77;20908;-84
2022/03/07 04:11:35;;;;;;;39.40;25.13;;;;;;;-1.08;57.70;99272.13;2318397;77;20982;-82
2022/03/07 04:14:35;;;;;;;38.07;23.30;;;;;;;-1.13;57.85;99262.87;2316957;77;20998;-82
2022/03/07 04:17:36;;;;;;;32.53;22.10;;;;;;;-1.13;58.05;99269.27;2317727;77;20914;-81
2022/03/07 04:20:36;;;;;;;38.07;23.23;;;;;;;-1.12;58.18;99267.59;2316499;77;20970;-81
2022/03/07 04:23:37;;;;;;;33.53;22.57;;;;;;;-1.13;58.13;99265.83;2316786;77;21310;-81
2022/03/07 04:26:37;;;;;;;35.70;23.73;;;;;;;-1.15;58.33;99267.41;2316667;77;21372;-81
2022/03/07 04:29:38;;;;;;;36.07;22.33;;;;;;;-1.13;58.41;99266.71;2316577;77;21294;-81
2022/03/07 04:32:38;;;;;;;36.87;24.60;;;;;;;-1.13;58.34;99268.39;2316498;77;20995;-81
2022/03/07 04:35:41;;;;;;;40.17;25.63;;;;;;;-1.16;58.54;99274.59;2316634;77;20928;-83
2022/03/07 04:38:42;;;;;;;38.70;24.57;;;;;;;-1.19;58.62;99274.40;2316348;77;21125;-81
2022/03/07 04:41:44;;;;;;;34.93;24.23;;;;;;;-1.15;58.83;99276.37;2313818;77;21360;-82
2022/03/07 04:44:46;;;;;;;41.27;24.97;;;;;;;-1.14;58.93;99279.42;2302598;77;21439;-81
2022/03/07 04:47:47;;;;;;;35.67;22.80;;;;;;;-1.12;58.90;99281.30;2301997;77;21012;-80
2022/03/07 04:50:47;;;;;;;38.47;23.87;;;;;;;-1.13;58.84;99281.20;2301967;77;20905;-82
2022/03/07 04:53:48;;;;;;;40.83;26.07;;;;;;;-1.15;58.84;99278.93;2302538;77;21023;-80
2022/03/07 04:56:50;;;;;;;43.73;27.83;;;;;;;-1.15;59.07;99279.81;2302850;77;20965;-81
2022/03/07 04:59:51;;;;;;;49.37;27.70;;;;;;;-1.15;59.03;99271.25;2303979;77;20997;-82
2022/03/07 05:02:51;;;;;;;43.63;26.17;;;;;;;-1.14;59.18;99274.30;2303098;77;20945;-82
2022/03/07 05:05:52;;;;;;;43.17;24.43;;;;;;;-1.14;59.08;99271.73;2303028;77;21007;-81
2022/03/07 05:08:52;;;;;;;40.67;24.10;;;;;;;-1.14;59.30;99271.73;2304521;77;21435;-82
2022/03/07 05:11:53;;;;;;;40.27;24.07;;;;;;;-1.11;59.47;99275.78;2304313;77;21399;-82
2022/03/07 05:14:53;;;;;;;40.83;25.30;;;;;;;-1.10;59.37;99274.98;2303474;77;20980;-81
2022/03/07 05:17:54;;;;;;;37.13;24.27;;;;;;;-1.08;59.50;99269.56;2303693;77;20997;-82
2022/03/07 05:20:55;;;;;;;35.60;24.30;;;;;;;-1.06;59.35;99274.39;2304192;77;20961;-82
2022/03/07 05:23:55;;;;;;;42.03;23.53;;;;;;;-1.06;59.29;99276.95;2304632;77;21332;-81
2022/03/07 05:26:56;;;;;;;33.30;23.37;;;;;;;-1.06;59.34;99276.56;2303217;77;20949;-81
2022/03/07 05:29:56;;;;;;;40.37;24.20;;;;;;;-1.07;59.45;99268.78;2302962;77;20957;-82
2022/03/07 05:32:57;;;;;;;37.73;23.93;;;;;;;-1.07;59.54;99270.06;2302686;77;20985;-80
2022/03/07 05:35:58;;;;;;;43.33;24.90;;;;;;;-1.06;59.55;99279.52;2301191;77;20945;-79
2022/03/07 05:38:58;;;;;;;42.50;26.13;;;;;;;-0.59;59.66;99273.97;2302179;77;20957;-82
2022/03/07 05:41:59;;;;;;;40.77;25.73;;;;;;;-0.70;59.12;99272.02;2304356;76;20998;-80
2022/03/07 05:44:59;;;;;;;36.57;23.13;;;;;;;-0.79;59.20;99273.61;2315144;77;21014;-80
2022/03/07 05:48:00;;;;;;;37.77;24.57;;;;;;;-0.84;59.46;99275.39;2314885;77;20981;-82
2022/03/07 05:51:00;;;;;;;36.40;22.70;;;;;;;-0.88;59.19;99267.88;2314748;77;21432;-82
2022/03/07 05:54:00;;;;;;;36.70;23.73;;;;;;;-0.89;59.38;99272.51;2314604;77;20971;-81
2022/03/07 05:57:01;;;;;;;38.93;23.27;;;;;;;-0.87;59.39;99267.08;2314522;77;20923;-83
2022/03/07 06:03:04;;;;;;;39.67;21.87;;;;;;;-0.76;59.24;99248.56;2285486;77;21007;-83
2022/03/07 06:06:04;;;;;;;36.07;21.60;;;;;;;-0.68;59.39;99240.56;2316609;77;20999;-84
2022/03/07 06:09:05;;;;;;;39.77;23.20;;;;;;;-0.62;58.90;99258.39;2316907;77;21338;-84
2022/03/07 06:12:06;;;;;;;32.97;22.43;;;;;;;-0.60;58.81;99258.09;2316659;77;21380;-83
2022/03/07 06:15:06;;;;;;;39.57;22.00;;;;;;;-0.54;58.79;99261.03;2316327;77;20985;-81
2022/03/07 06:18:07;;;;;;;35.27;21.10;;;;;;;-0.53;58.40;99256.00;2316056;77;21009;-81
2022/03/07 06:21:08;;;;;;;36.50;20.43;;;;;;;-0.54;58.37;99254.23;2317007;77;21005;-81
2022/03/07 06:24:08;;;;;;;36.27;20.77;;;;;;;-0.54;58.08;99261.03;2315778;77;21409;-82
2022/03/07 06:27:09;;;;;;;28.97;19.30;;;;;;;-0.58;57.94;99259.96;2315572;77;20994;-79
2022/03/07 06:30:10;;;;;;;33.83;18.90;;;;;;;-0.58;57.85;99266.38;2315390;77;20926;-81
2022/03/07 06:33:10;;;;;;;29.00;19.00;;;;;;;-0.57;57.99;99264.69;2317236;77;20982;-83
2022/03/07 06:36:11;;;;;;;31.90;19.50;;;;;;;-0.60;57.93;99272.19;2317671;77;21331;-83
2022/03/07 06:39:11;;;;;;;36.37;20.33;;;;;;;-0.61;57.90;99265.30;2317893;77;21002;-83
2022/03/07 06:42:12;;;;;;;33.27;19.00;;;;;;;-0.61;58.00;99270.42;2315681;77;21726;-84
2022/03/07 06:45:12;;;;;;;30.33;17.00;;;;;;;-0.57;58.01;99273.27;2304326;77;20991;-84
2022/03/07 06:48:13;;;;;;;31.97;18.30;;;;;;;-0.58;57.39;99277.02;2303647;77;20968;-84
2022/03/07 06:51:13;;;;;;;27.73;15.87;;;;;;;-0.56;57.84;99279.28;2303601;77;20973;-84
2022/03/07 06:54:14;;;;;;;34.53;16.43;;;;;;;-0.57;57.44;99277.52;2304158;77;21389;-83
2022/03/07 06:57:14;;;;;;;32.97;17.30;;;;;;;-0.58;57.59;99279.19;2304547;77;21012;-83
2022/03/07 07:00:15;;;;;;;26.03;16.47;;;;;;;-0.56;57.59;99279.28;2303707;77;20933;-83
2022/03/07 07:03:16;;;;;;;24.80;16.83;;;;;;;-0.56;57.23;99284.41;2303991;77;21040;-81
2022/03/07 07:06:16;;;;;;;31.33;15.43;;;;;;;-0.56;57.63;99278.89;2302594;77;21473;-80
2022/03/07 07:09:17;;;;;;;28.17;17.00;;;;;;;-0.52;57.65;99282.13;2302242;77;21004;-84
2022/03/07 07:12:17;;;;;;;33.60;16.33;;;;;;;-0.43;57.85;99283.98;2302373;77;21000;-83
2022/03/07 07:15:18;;;;;;;31.60;17.37;;;;;;;-0.35;57.84;99286.63;2302853;77;21023;-83
2022/03/07 07:18:19;;;;;;;42.67;18.20;;;;;;;-0.25;57.76;99280.38;2302505;77;21035;-82
2022/03/07 07:21:20;;;;;;;31.80;17.20;;;;;;;-0.13;57.65;99282.80;2302259;77;21079;-83
2022/03/07 07:24:20;;;;;;;44.83;17.73;;;;;;;-0.05;57.11;99290.16;2303954;77;21007;-84
2022/03/07 07:27:21;;;;;;;29.10;16.57;;;;;;;0.02;57.06;99283.75;2303892;77;21007;-85
2022/03/07 07:30:22;;;;;;;30.60;16.50;;;;;;;0.15;57.06;99286.25;2302123;77;21352;-84
2022/03/07 07:33:23;;;;;;;32.43;18.20;;;;;;;0.22;56.59;99286.22;2303420;77;21372;-84
2022/03/07 07:36:23;;;;;;;29.87;18.13;;;;;;;0.23;56.02;99291.84;2302544;77;20973;-84
2022/03/07 07:39:24;;;;;;;27.13;16.17;;;;;;;0.20;56.13;99299.36;2300948;77;20921;-84
2022/03/07 07:42:24;;;;;;;28.13;16.43;;;;;;;0.25;56.12;99279.98;2301123;77;21697;-81
2022/03/07 07:45:25;;;;;;;24.63;15.57;;;;;;;0.33;55.95;99282.59;2300861;77;20984;-82
2022/03/07 07:55:31;;;;;;;30.40;17.37;;;;;;;0.77;55.50;99276.17;2301426;77;20912;-80
2022/03/07 07:58:31;;;;;;;28.87;16.67;;;;;;;0.84;55.10;99277.01;2301313;77;21316;-81
2022/03/07 08:01:32;;;;;;;26.57;17.37;;;;;;;0.99;55.07;99277.02;2301211;77;20933;-81
2022/03/07 08:04:32;;;;;;;30.70;18.00;;;;;;;1.14;54.61;99279.16;2301358;77;20990;-80
2022/03/07 08:07:34;;;;;;;23.33;14.93;;;;;;;1.24;54.78;99274.12;2301548;77;20902;-80
2022/03/07 08:10:34;;;;;;;21.70;13.97;;;;;;;1.32;53.34;99277.11;2300287;77;20976;-79
2022/03/07 08:13:35;;;;;;;24.03;13.83;;;;;;;1.31;53.70;99268.91;2300348;77;20996;-81
2022/03/07 08:16:35;;;;;;;24.33;13.63;;;;;;;1.32;53.04;99280.97;2300888;77;20941;-80
2022/03/07 08:19:36;;;;;;;21.93;14.03;;;;;;;1.25;52.92;99280.64;2301428;77;20932;-84
2022/03/07 08:22:36;;;;;;;26.47;15.27;;;;;;;1.27;52.97;99280.72;2302124;77;20937;-83
2022/03/07 08:25:37;;;;;;;29.00;15.20;;;;;;;1.38;53.67;99274.88;2302567;77;20969;-85
2022/03/07 08:28:37;;;;;;;21.23;12.57;;;;;;;1.70;52.52;99281.35;2301830;77;20975;-83
2022/03/07 08:31:38;;;;;;;24.27;15.23;;;;;;;1.69;52.17;99283.44;2300920;77;20937;-81
2022/03/07 08:34:38;;;;;;;24.97;13.83;;;;;;;1.62;52.26;99283.92;2301979;77;20925;-82
2022/03/07 08:37:39;;;;;;;20.80;12.50;;;;;;;1.60;52.28;99284.23;2302126;77;20960;-85
2022/03/07 08:40:39;;;;;;;21.90;12.83;;;;;;;1.58;52.45;99280.30;2302454;77;21052;-82
2022/03/07 08:43:42;;;;;;;24.33;13.83;;;;;;;1.62;52.68;99283.92;2293466;76;21049;-83
2022/03/07 08:46:42;;;;;;;29.30;13.63;;;;;;;1.75;52.41;99277.37;2284106;78;20986;-80
2022/03/07 08:49:43;;;;;;;22.73;14.53;;;;;;;1.94;51.82;99280.52;2283412;78;20931;-82
2022/03/07 08:52:43;;;;;;;19.77;13.10;;;;;;;2.35;51.22;99283.05;2283208;78;21013;-81
2022/03/07 08:55:44;;;;;;;23.80;13.30;;;;;;;2.58;50.69;99271.32;2282343;78;20962;-83
2022/03/07 08:58:44;;;;;;;20.97;13.37;;;;;;;2.91;50.06;99267.86;2283762;78;20954;-83
2022/03/07 09:01:47;;;;;;;22.40;13.60;;;;;;;2.90;50.05;99271.24;2256400;78;21039;-84
2022/03/07 09:04:47;;;;;;;21.53;13.00;;;;;;;2.74;49.67;99278.63;2283796;78;20982;-85
2022/03/07 09:07:48;;;;;;;22.30;14.10;;;;;;;2.54;49.93;99278.90;2284489;78;20923;-84
2022/03/07 09:10:48;;;;;;;26.40;14.37;;;;;;;2.42;50.69;99273.13;2285110;78;20946;-83
2022/03/07 09:13:49;;;;;;;24.43;13.80;;;;;;;2.47;50.80;99288.42;2285377;78;21617;-84
2022/03/07 09:16:49;;;;;;;18.97;13.13;;;;;;;2.52;50.79;99278.34;2285279;78;20970;-82
2022/03/07 09:19:50;;;;;;;19.50;12.47;;;;;;;2.63;50.80;99284.95;2284612;78;20954;-80
2022/03/07 09:22:51;;;;;;;17.13;10.93;;;;;;;2.54;50.38;99281.48;2283665;78;20942;-84
2022/03/07 09:25:51;;;;;;;19.17;11.63;;;;;;;2.55;50.38;99275.52;2283908;78;20914;-84
2022/03/07 09:28:51;;;;;;;1918.17;158.13;;;;;;;2.49;49.19;99287.20;2283743;78;20923;-84
2022/03/07 09:31:52;;;;;;;20.87;11.63;;;;;;;2.44;49.61;99283.52;2283011;78;21005;-84
2022/03/07 09:34:53;;;;;;;18.40;11.67;;;;;;;2.54;49.93;99277.61;2283433;78;20943;-80
2022/03/07 09:37:53;;;;;;;16.83;12.33;;;;;;;2.64;49.34;99269.97;2283931;78;21632;-83
2022/03/07 09:40:54;;;;;;;20.90;13.40;;;;;;;2.54;49.67;99269.87;2285184;78;21342;-84
2022/03/07 09:43:55;;;;;;;23.43;14.63;;;;;;;2.47;50.06;99264.34;2300375;77;21026;-82
2022/03/07 09:46:55;;;;;;;22.87;13.30;;;;;;;2.50;50.17;99269.25;2316706;77;20983;-83
2022/03/07 09:49:56;;;;;;;22.27;10.90;;;;;;;2.47;49.76;99272.07;2316897;77;20923;-85
2022/03/07 09:52:57;;;;;;;17.73;10.63;;;;;;;2.48;49.59;99273.44;2315349;77;20990;-83
2022/03/07 09:55:58;;;;;;;15.93;9.17;;;;;;;2.54;48.63;99280.59;2315440;77;20998;-83
2022/03/07 09:58:58;;;;;;;20.70;10.23;;;;;;;2.74;48.43;99265.74;2314935;77;20907;-82
2022/03/07 10:02:00;;;;;;;16.07;10.50;;;;;;;2.92;48.61;99273.49;2315274;77;20935;-83
2022/03/07 10:05:01;;;;;;;17.10;10.00;;;;;;;3.02;48.61;99271.84;2314339;77;20988;-81
2022/03/07 10:11:07;;;;;;;11.20;7.67;;;;;;;3.13;48.50;99268.48;2283457;77;21001;-82
2022/03/07 10:14:07;;;;;;;11.93;7.30;;;;;;;3.19;47.55;99267.48;2314548;77;20970;-83
2022/03/07 10:17:08;;;;;;;11.30;7.80;;;;;;;3.31;46.61;99282.25;2315451;77;20939;-82
2022/03/07 10:20:09;;;;;;;11.60;7.57;;;;;;;3.34;46.87;99270.78;2314554;77;20926;-82
2022/03/07 10:23:09;;;;;;;12.80;7.43;;;;;;;3.50;46.47;99274.59;2313569;77;20908;-82
2022/03/07 10:26:12;;;;;;;9.90;7.03;;;;;;;3.44;45.98;99275.56;2314264;77;20927;-84
2022/03/07 10:29:12;;;;;;;12.73;6.47;;;;;;;3.63;45.79;99273.86;2314321;77;20983;-83
2022/03/07 10:32:12;;;;;;;30.60;6.70;;;;;;;3.89;45.46;99272.45;2314734;77;21010;-83
2022/03/07 10:35:13;;;;;;;80.13;8.23;;;;;;;4.28;44.35;99271.63;2314916;77;21078;-84
2022/03/07 10:38:14;;;;;;;11.97;5.83;;;;;;;4.28;44.35;99271.63;2315473;77;20963;-82
2022/03/07 10:41:14;;;;;;;7.93;5.90;;;;;;;4.15;44.47;99277.08;2314665;77;20979;-81
2022/03/07 10:44:15;;;;;;;8.57;5.03;;;;;;;4.15;45.27;99260.28;2314999;76;21409;-82
2022/03/07 10:47:15;;;;;;;9.57;5.80;;;;;;;4.36;44.02;99259.06;2302158;77;20957;-83
2022/03/07 10:50:16;;;;;;;10.13;5.50;;;;;;;4.33;43.96;99267.95;2302344;77;20933;-83
2022/03/07 10:53:16;;;;;;;36.23;6.67;;;;;;;4.29;44.04;99267.34;2301971;77;20978;-85
2022/03/07 10:56:17;;;;;;;8.87;5.00;;;;;;;4.22;43.37;99262.31;2302041;77;20956;-83
2022/03/07 10:59:17;;;;;;;7.37;4.43;;;;;;;4.14;43.93;99249.06;2301900;77;20944;-84
2022/03/07 11:02:18;;;;;;;15.97;6.20;;;;;;;4.35;44.19;99243.97;2301020;77;20952;-83
2022/03/07 11:05:18;;;;;;;7.93;5.33;;;;;;;4.48;43.89;99240.20;2301528;77;20905;-80
2022/03/07 11:08:20;;;;;;;9.00;5.23;;;;;;;4.68;43.60;99230.27;2301858;77;20906;-86
2022/03/07 11:11:21;;;;;;;8.90;4.90;;;;;;;5.09;42.62;99227.17;2302880;77;20922;-85
2022/03/07 11:14:21;;;;;;;11.07;4.67;;;;;;;5.44;43.10;99219.50;2302234;77;20989;-81
2022/03/07 11:17:22;;;;;;;17.87;9.00;;;;;;;5.56;41.80;99208.31;2301705;77;20965;-82
2022/03/07 11:20:22;;;;;;;10.33;5.00;;;;;;;5.50;42.54;99206.78;2301344;77;20909;-83
2022/03/07 11:23:24;;;;;;;8.30;5.00;;;;;;;5.43;41.64;99211.27;2274615;77;20952;-83
2022/03/07 11:26:26;;;;;;;6.40;4.13;;;;;;;5.27;42.69;99205.03;2301696;77;21003;-81
2022/03/07 11:29:26;;;;;;;7.40;4.60;;;;;;;5.03;42.50;99207.11;2274929;77;20932;-81
2022/03/07 11:32:27;;;;;;;8.47;4.80;;;;;;;5.10;43.69;99202.64;2302074;77;21438;-81
2022/03/07 11:35:27;;;;;;;7.67;4.30;;;;;;;5.31;43.35;99183.62;2302266;77;20960;-83
2022/03/07 11:38:31;;;;;;;9.03;4.63;;;;;;;5.24;43.49;99203.21;2302403;77;20906;-84
2022/03/07 11:41:30;;;;;;;23.37;4.93;;;;;;;5.23;44.19;99186.33;2301648;77;21028;-84
2022/03/07 11:44:31;;;;;;;6.10;4.20;;;;;;;5.33;43.49;99193.63;2302697;77;21031;-84
2022/03/07 11:47:31;;;;;;;5.93;4.93;;;;;;;5.21;43.88;99191.45;2285939;77;20986;-84
2022/03/07 11:50:32;;;;;;;9.00;4.57;;;;;;;5.21;44.08;99185.39;2284012;78;20970;-84
2022/03/07 11:53:32;;;;;;;10.40;4.00;;;;;;;5.27;44.62;99176.56;2283852;78;20950;-84
2022/03/07 11:56:33;;;;;;;9.60;5.20;;;;;;;5.28;44.30;99180.91;2284201;78;20907;-84
2022/03/07 11:59:33;;;;;;;6.57;4.30;;;;;;;5.22;44.82;99177.69;2284347;78;21304;-84
2022/03/07 12:02:34;;;;;;;7.37;4.63;;;;;;;5.16;44.68;99172.23;2283517;78;20943;-85
2022/03/07 12:05:34;;;;;;;9.33;5.33;;;;;;;4.92;45.18;99164.83;2284455;78;20946;-83
2022/03/07 12:08:35;;;;;;;8.37;6.30;;;;;;;4.88;46.04;99171.59;2284258;78;20958;-82
2022/03/07 12:11:35;;;;;;;8.43;5.20;;;;;;;5.05;45.53;99170.53;2283657;78;20979;-78
2022/03/07 12:14:36;;;;;;;21.13;5.67;;;;;;;5.26;45.83;99162.73;2283276;78;20946;-81
2022/03/07 12:17:37;;;;;;;13.83;8.90;;;;;;;5.42;45.35;99158.60;2282751;78;20950;-80
2022/03/07 12:20:37;;;;;;;39.93;6.83;;;;;;;5.63;45.52;99155.91;2282964;78;20961;-82
2022/03/07 12:26:40;;;;;;;9.20;6.20;;;;;;;5.42;45.42;99159.02;2255934;78;20958;-82
2022/03/07 12:29:40;;;;;;;18.93;11.03;;;;;;;5.32;45.54;99147.85;2284192;78;20931;-84
2022/03/07 12:32:41;;;;;;;11.83;5.80;;;;;;;5.24;45.86;99166.09;2284612;78;20958;-85
2022/03/07 12:35:41;;;;;;;8.77;6.53;;;;;;;5.10;46.27;99154.77;2284049;78;20959;-83
2022/03/07 12:38:42;;;;;;;12.77;7.03;;;;;;;5.09;46.39;99160.77;2283589;78;21010;-83
2022/03/07 12:41:42;;;;;;;10.03;6.57;;;;;;;5.19;46.99;99153.36;2284702;78;20959;-85
2022/03/07 12:44:43;;;;;;;11.83;6.93;;;;;;;5.29;46.60;99146.45;2284134;78;21110;-82
2022/03/07 12:47:44;;;;;;;50.17;6.33;;;;;;;5.34;46.57;99142.32;2299449;77;20969;-84
2022/03/07 12:50:50;;;;;;;12.67;6.33;;;;;;;5.20;47.27;99143.09;2302223;77;21000;-83
2022/03/07 12:53:51;;;;;;;18.17;7.43;;;;;;;5.18;47.44;99145.13;2302634;77;21048;-83
2022/03/07 12:56:52;;;;;;;12.87;7.70;;;;;;;5.13;47.81;99146.25;2302742;77;20996;-83
2022/03/07 12:59:52;;;;;;;12.00;7.37;;;;;;;5.02;47.92;99138.48;2302901;77;21309;-83
2022/03/07 13:02:54;;;;;;;1999.90;356.03;;;;;;;4.93;48.53;99142.02;2302250;77;21404;-82
2022/03/07 13:05:54;;;;;;;19.00;6.67;;;;;;;4.74;48.50;99140.00;2300806;77;21259;-82
2022/03/07 13:08:55;;;;;;;10.23;6.27;;;;;;;4.63;48.72;99139.99;2301924;77;21335;-82
2022/03/07 13:11:55;;;;;;;16.17;6.33;;;;;;;4.43;49.08;99143.08;2302335;77;20969;-83
2022/03/07 13:14:56;;;;;;;10.77;6.07;;;;;;;4.54;48.97;99138.33;2300849;77;20985;-84
2022/03/07 13:17:56;;;;;;;10.87;6.10;;;;;;;4.67;49.18;99131.53;2301249;77;20957;-82
2022/03/07 13:20:57;;;;;;;9.77;6.00;;;;;;;4.54;49.42;99132.28;2300194;77;20941;-83
2022/03/07 13:23:57;;;;;;;52.53;6.23;;;;;;;4.30;49.92;99130.44;2300647;77;20980;-83
2022/03/07 13:26:58;;;;;;;20.60;5.80;;;;;;;4.25;50.50;99130.66;2300806;77;20945;-82
2022/03/07 13:29:58;;;;;;;8.37;5.60;;;;;;;4.23;50.65;99131.41;2301051;77;20964;-83
2022/03/07 13:32:59;;;;;;;9.90;5.73;;;;;;;4.27;51.11;99131.61;2300962;77;20965;-82
2022/03/07 13:35:59;;;;;;;14.10;5.93;;;;;;;4.29;50.98;99126.09;2300733;77;21332;-83
2022/03/07 13:39:00;;;;;;;12.63;5.67;;;;;;;4.36;50.90;99137.59;2300728;77;20941;-83
2022/03/07 13:42:01;;;;;;;12.37;6.30;;;;;;;4.51;50.09;99123.11;2300773;77;20959;-83
2022/03/07 13:45:01;;;;;;;11.40;6.90;;;;;;;4.69;50.22;99114.79;2300823;77;21003;-83
2022/03/07 13:48:01;;;;;;;26.67;6.23;;;;;;;4.93;49.96;99117.03;2313227;77;20997;-84
2022/03/07 13:51:02;;;;;;;12.87;5.97;;;;;;;4.99;48.83;99131.49;2315009;77;21294;-82
2022/03/07 13:54:02;;;;;;;8.27;6.17;;;;;;;5.05;48.55;99113.61;2314645;77;21398;-83
2022/03/07 13:57:03;;;;;;;9.77;6.40;;;;;;;5.17;49.36;99117.48;2315423;77;20950;-81
2022/03/07 14:00:04;;;;;;;8.90;6.47;;;;;;;5.27;48.72;99113.16;2315179;77;21030;-83
2022/03/07 14:03:05;;;;;;;27.13;7.13;;;;;;;5.24;48.46;99116.92;2315124;77;20931;-84
2022/03/07 14:06:08;;;;;;;8.27;5.07;;;;;;;5.07;48.62;99131.38;2314203;77;20954;-83
2022/03/07 14:09:08;;;;;;;9.67;6.03;;;;;;;5.12;48.58;99125.95;2314693;77;21017;-83
2022/03/07 14:12:08;;;;;;;8.60;6.20;;;;;;;5.27;48.89;99124.80;2316104;77;20962;-83
2022/03/07 14:15:09;;;;;;;13.23;7.00;;;;;;;5.08;48.65;99124.08;2316334;77;21021;-85